Fast Ferries Andros — SVQE — position and weather

sailwx.info

Track history (hours):
 
Tides and Currents Weather Stations Pressure Air Temp Water Temp Dewpoint Dewpoint Depression Visibility Wind Speed Wind Dir Waves Ship Positions

Fast Ferries Andros

Last reported at 2018-Feb-21 15:59 UTC. Time now 2018-Feb-21 17:36 UTC.
Position N 37°59' E 024°09'.

Length 115 m; draft 4.5 m.

Type: Passenger vessel. MMSI: 237955000.

Date/timePositionNaut miles runAvg speedWind from/ knotsBaromVisibWave heightAir tempDewpointWater temp
2018-Feb-21 15:59N 37°59' E 024°09'6 1.1
2018-Feb-21 10:12N 38°01' E 024°01'418.0
2018-Feb-21 10:00N 38°00' E 024°06'4815.8
2018-Feb-21 06:58N 37°38' E 024°59'919.1
2018-Feb-21 06:30N 37°32' E 025°08'4 7.4
2018-Feb-21 06:00N 37°31' E 025°12'713.3
2018-Feb-21 05:30N 37°28' E 025°20'0 0.0
2018-Feb-21 05:00N 37°28' E 025°20'0 0.0
2018-Feb-21 04:30N 37°28' E 025°20'0 0.0
2018-Feb-21 04:00N 37°28' E 025°20'0 0.0
2018-Feb-21 03:30N 37°28' E 025°20'0 0.0
2018-Feb-21 03:00N 37°28' E 025°20'0 0.0
2018-Feb-21 02:30N 37°28' E 025°20'0 0.0
2018-Feb-21 02:00N 37°28' E 025°20'0 0.0
2018-Feb-21 01:30N 37°28' E 025°20'0 0.0
2018-Feb-21 01:00N 37°28' E 025°20'0 0.0
2018-Feb-21 00:30N 37°28' E 025°20'0 0.0
2018-Feb-20 23:59N 37°28' E 025°20'0 0.0
2018-Feb-20 23:30N 37°28' E 025°20'0 0.0
2018-Feb-20 23:00N 37°28' E 025°20'0 0.0
2018-Feb-20 22:30N 37°28' E 025°20'0 0.0
2018-Feb-20 22:00N 37°28' E 025°20'0 0.0
2018-Feb-20 21:30N 37°28' E 025°20'0 0.0
2018-Feb-20 21:00N 37°28' E 025°20'0 0.0
2018-Feb-20 20:30N 37°28' E 025°20'612.5
2018-Feb-20 20:01N 37°30' E 025°12'3 6.5
2018-Feb-20 19:31N 37°32' E 025°09'917.8
2018-Feb-20 19:00N 37°37' E 024°60'4615.4
2018-Feb-20 16:00N 37°60' E 024°08'6 1.0
2018-Feb-20 10:18N 38°01' E 024°01'4915.4
2018-Feb-20 07:07N 37°39' E 024°57'219.3
2018-Feb-20 06:59N 37°38' E 024°59'918.6
2018-Feb-20 06:30N 37°32' E 025°08'3 6.8
2018-Feb-20 06:00N 37°30' E 025°12'713.0
2018-Feb-20 05:30N 37°28' E 025°20'0 0.0
2018-Feb-20 05:00N 37°28' E 025°20'0 0.0
2018-Feb-20 04:30N 37°28' E 025°20'0 0.0
2018-Feb-20 04:00N 37°28' E 025°20'0 0.0
2018-Feb-20 03:30N 37°28' E 025°20'0 0.0
2018-Feb-20 02:59N 37°28' E 025°20'0 0.0
2018-Feb-20 02:30N 37°28' E 025°20'0 0.0
2018-Feb-20 02:00N 37°28' E 025°20'0 0.0
2018-Feb-20 01:30N 37°28' E 025°20'0 0.0
2018-Feb-20 01:00N 37°28' E 025°20'713.8
2018-Feb-20 00:30N 37°31' E 025°12'4 8.5
2018-Feb-20 00:00N 37°33' E 025°07'1118.7
2018-Feb-19 23:26N 37°38' E 024°55'3418.6
2018-Feb-19 21:35N 37°54' E 024°17'219.1
2018-Feb-19 21:29N 37°56' E 024°15'919.0
2018-Feb-19 21:00N 37°60' E 024°05'3 3.1
2018-Feb-19 20:01N 38°01' E 024°01'013.1
2018-Feb-19 20:00N 38°01' E 024°02'8 1.9
2018-Feb-19 16:01N 37°59' E 024°11'018.5
2018-Feb-19 16:00N 37°59' E 024°11'8 6.0
2018-Feb-19 14:42N 38°01' E 024°01'417.6
2018-Feb-19 14:30N 38°00' E 024°06'4915.6
2018-Feb-19 11:20N 37°37' E 025°00'619.3
2018-Feb-19 11:00N 37°33' E 025°06'3 7.0
2018-Feb-19 10:30N 37°31' E 025°10'816.2
2018-Feb-19 10:00N 37°28' E 025°20'0 0.0
2018-Feb-19 09:30N 37°28' E 025°20'0 0.0
2018-Feb-19 09:00N 37°28' E 025°20'0 0.0
2018-Feb-19 08:30N 37°28' E 025°20'0 0.0
2018-Feb-19 08:00N 37°28' E 025°20'0 0.0
2018-Feb-19 07:30N 37°28' E 025°20'0 0.0
2018-Feb-19 07:00N 37°28' E 025°20'0 0.0
2018-Feb-19 06:30N 37°28' E 025°20'0 0.0
2018-Feb-19 06:00N 37°28' E 025°20'0 0.0
2018-Feb-19 05:30N 37°28' E 025°20'0 0.0
2018-Feb-19 05:00N 37°28' E 025°20'0 0.0
2018-Feb-19 04:30N 37°28' E 025°20'0 0.0
2018-Feb-19 04:00N 37°28' E 025°20'0 0.0
2018-Feb-19 03:30N 37°28' E 025°20'0 0.0
2018-Feb-19 03:00N 37°28' E 025°20'0 0.0
2018-Feb-19 02:30N 37°28' E 025°20'0 0.0
2018-Feb-19 02:00N 37°28' E 025°20'0 0.0
2018-Feb-19 01:30N 37°28' E 025°20'0 0.0
2018-Feb-19 01:00N 37°28' E 025°20'0 0.0
2018-Feb-19 00:30N 37°28' E 025°20'0 0.0
2018-Feb-19 00:00N 37°28' E 025°20'0 0.0
2018-Feb-18 23:30N 37°28' E 025°20'0 0.0
2018-Feb-18 23:00N 37°28' E 025°20'0 0.0
2018-Feb-18 22:30N 37°28' E 025°20'0 0.0
2018-Feb-18 22:00N 37°28' E 025°20'0 0.0
2018-Feb-18 21:30N 37°28' E 025°20'0 0.0
2018-Feb-18 21:00N 37°28' E 025°20'1 1.8
2018-Feb-18 20:30N 37°28' E 025°18'816.8
2018-Feb-18 20:00N 37°32' E 025°09'510.3
2018-Feb-18 19:30N 37°35' E 025°04'4916.1
2018-Feb-18 16:27N 37°59' E 024°10'7 7.3
2018-Feb-18 15:28N 38°01' E 024°01'5115.6
2018-Feb-18 12:11N 37°38' E 024°59'319.1
2018-Feb-18 12:00N 37°36' E 025°02'714.2
2018-Feb-18 11:30N 37°32' E 025°09'612.8
2018-Feb-18 11:00N 37°29' E 025°16'3 5.8
2018-Feb-18 10:30N 37°28' E 025°20'0 0.0
2018-Feb-18 10:00N 37°28' E 025°20'0 0.0
2018-Feb-18 09:30N 37°28' E 025°20'0 0.0
2018-Feb-18 09:00N 37°28' E 025°20'0 0.0
2018-Feb-18 06:38N 37°28' E 025°20'0 0.0
2018-Feb-18 06:30N 37°28' E 025°20'0 0.0
2018-Feb-18 06:00N 37°28' E 025°20'0 0.0
2018-Feb-18 05:30N 37°28' E 025°20'0 0.0
2018-Feb-18 05:00N 37°28' E 025°20'0 0.0
2018-Feb-18 04:30N 37°28' E 025°20'0 0.0
2018-Feb-18 04:00N 37°28' E 025°20'0 0.0
2018-Feb-18 03:30N 37°28' E 025°20'0 0.0
2018-Feb-18 03:00N 37°28' E 025°20'0 0.0
2018-Feb-18 02:30N 37°28' E 025°20'0 0.0
2018-Feb-18 02:00N 37°28' E 025°20'0 0.0
2018-Feb-18 01:30N 37°28' E 025°20'0 0.0
2018-Feb-18 01:00N 37°28' E 025°20'0 0.0
2018-Feb-18 00:30N 37°28' E 025°20'0 0.0
2018-Feb-18 00:00N 37°28' E 025°20'0 0.0
2018-Feb-17 23:30N 37°28' E 025°20'0 0.0
2018-Feb-17 23:00N 37°28' E 025°20'0 0.0
2018-Feb-17 22:30N 37°28' E 025°20'0 0.0
2018-Feb-17 22:00N 37°28' E 025°20'0 0.0
2018-Feb-17 21:30N 37°28' E 025°20'0 0.0
2018-Feb-17 21:00N 37°28' E 025°20'0 0.0
2018-Feb-17 20:30N 37°28' E 025°20'5 9.5
2018-Feb-17 20:00N 37°30' E 025°14'5 9.0
2018-Feb-17 19:30N 37°32' E 025°09'816.2
2018-Feb-17 19:00N 37°37' E 025°01'918.8
2018-Feb-17 18:30N 37°43' E 024°53'3915.0
2018-Feb-17 15:56N 37°59' E 024°08'6 4.3
2018-Feb-17 14:37N 38°01' E 024°01'217.0
2018-Feb-17 14:30N 38°01' E 024°04'4018.4
2018-Feb-17 12:20N 37°41' E 024°48'718.5
2018-Feb-17 11:59N 37°38' E 024°55'918.3
2018-Feb-17 11:30N 37°34' E 025°04'918.0
2018-Feb-17 11:00N 37°29' E 025°14'4 8.5
2018-Feb-17 10:29N 37°28' E 025°20'3 7.3
2018-Feb-17 10:01N 37°29' E 025°16'611.5
2018-Feb-17 09:30N 37°32' E 025°09'714.7
2018-Feb-17 09:00N 37°36' E 025°02'1018.7
2018-Feb-17 08:28N 37°43' E 024°52'3714.7
2018-Feb-17 05:57N 37°59' E 024°10'8 1.8
2018-Feb-17 01:46N 38°01' E 024°01'414.9
2018-Feb-17 01:30N 38°01' E 024°06'3818.2
2018-Feb-16 23:23N 37°41' E 024°48'818.3
2018-Feb-16 22:57N 37°37' E 024°56'818.3
2018-Feb-16 22:30N 37°33' E 025°05'918.1
2018-Feb-16 22:00N 37°29' E 025°15'3 6.9
2018-Feb-16 21:30N 37°28' E 025°20'0 0.3
2018-Feb-16 21:00N 37°28' E 025°19'917.2
2018-Feb-16 20:30N 37°31' E 025°10'1 1.5
2018-Feb-16 20:00N 37°32' E 025°09'714.1
2018-Feb-16 19:30N 37°36' E 025°02'1018.0
2018-Feb-16 18:58N 37°43' E 024°53'3813.6
2018-Feb-16 16:09N 37°59' E 024°09'318.2
2018-Feb-16 16:00N 38°00' E 024°06'4 0.7
2018-Feb-16 10:19N 38°01' E 024°01'5115.6
2018-Feb-16 07:01N 37°38' E 024°59'019.3
2018-Feb-16 07:00N 37°38' E 024°59'1019.2
2018-Feb-16 06:31N 37°32' E 025°08'4 7.3
2018-Feb-16 06:00N 37°30' E 025°12'612.7
2018-Feb-16 05:30N 37°28' E 025°20'0 0.0
2018-Feb-16 05:00N 37°28' E 025°20'0 0.0
2018-Feb-16 04:30N 37°28' E 025°20'0 0.0
2018-Feb-16 04:01N 37°28' E 025°20'0 0.0
2018-Feb-16 03:30N 37°28' E 025°20'0 0.0
2018-Feb-16 03:00N 37°28' E 025°20'0 0.0
2018-Feb-16 02:31N 37°28' E 025°20'0 0.0
2018-Feb-16 02:00N 37°28' E 025°20'0 0.0
2018-Feb-16 01:30N 37°28' E 025°20'0 0.0
2018-Feb-16 01:01N 37°28' E 025°20'0 0.0
2018-Feb-16 00:30N 37°28' E 025°20'0 0.0
2018-Feb-16 00:00N 37°28' E 025°20'0 0.0
2018-Feb-15 23:30N 37°28' E 025°20'0 0.0
2018-Feb-15 23:00N 37°28' E 025°20'0 0.0
2018-Feb-15 22:30N 37°28' E 025°20'0 0.0
2018-Feb-15 22:00N 37°28' E 025°20'0 0.0
2018-Feb-15 21:30N 37°28' E 025°20'0 0.0
2018-Feb-15 21:00N 37°28' E 025°20'0 0.2
2018-Feb-15 20:30N 37°28' E 025°20'815.4
2018-Feb-15 20:00N 37°31' E 025°11'2 4.1
2018-Feb-15 19:30N 37°32' E 025°09'5515.6
2018-Feb-15 15:59N 37°60' E 024°08'6 1.1
2018-Feb-15 10:22N 38°01' E 024°01'514.8
2018-Feb-15 10:00N 37°60' E 024°07'4615.5
2018-Feb-15 07:04N 37°38' E 024°59'119.1
2018-Feb-15 06:59N 37°37' E 024°60'918.6
2018-Feb-15 06:30N 37°32' E 025°09'4 8.0
2018-Feb-15 06:00N 37°30' E 025°13'511.0
2018-Feb-15 05:30N 37°28' E 025°20'0 0.0
2018-Feb-15 05:00N 37°28' E 025°20'0 0.0
2018-Feb-15 04:30N 37°28' E 025°20'0 0.0
2018-Feb-15 04:00N 37°28' E 025°20'0 0.0
2018-Feb-15 03:30N 37°28' E 025°20'0 0.0
2018-Feb-15 03:00N 37°28' E 025°20'0 0.0
2018-Feb-15 02:30N 37°28' E 025°20'0 0.0
2018-Feb-15 02:00N 37°28' E 025°20'0 0.0
2018-Feb-15 01:30N 37°28' E 025°20'0 0.0
2018-Feb-15 01:00N 37°28' E 025°20'0 0.0
2018-Feb-15 00:30N 37°28' E 025°20'0 0.0
2018-Feb-15 00:00N 37°28' E 025°20'0 0.0
2018-Feb-14 23:30N 37°28' E 025°20'0 0.0
2018-Feb-14 23:00N 37°28' E 025°20'0 0.0
2018-Feb-14 22:30N 37°28' E 025°20'0 0.0
2018-Feb-14 22:00N 37°28' E 025°20'0 0.0
2018-Feb-14 21:30N 37°28' E 025°20'0 0.0
2018-Feb-14 21:00N 37°28' E 025°20'0 0.1
2018-Feb-14 20:30N 37°28' E 025°20'815.2
2018-Feb-14 20:00N 37°31' E 025°11'2 3.4
2018-Feb-14 19:30N 37°32' E 025°09'816.9
2018-Feb-14 19:00N 37°37' E 025°01'53 6.4
2018-Feb-14 10:45N 38°01' E 024°01'517.1
2018-Feb-14 10:29N 38°00' E 024°07'4614.9
2018-Feb-14 07:22N 37°38' E 024°58'718.3
2018-Feb-14 07:00N 37°34' E 025°05'4 7.7
2018-Feb-14 06:28N 37°32' E 025°10'4 9.3
2018-Feb-14 06:00N 37°30' E 025°14'5 9.8
2018-Feb-14 05:31N 37°28' E 025°20'0 0.0
2018-Feb-14 05:00N 37°28' E 025°20'0 0.0
2018-Feb-14 04:29N 37°28' E 025°20'0 0.0
2018-Feb-14 04:00N 37°28' E 025°20'0 0.0
2018-Feb-14 03:30N 37°28' E 025°20'0 0.0
2018-Feb-14 03:00N 37°28' E 025°20'0 0.0
2018-Feb-14 02:30N 37°28' E 025°20'0 0.0
2018-Feb-14 02:01N 37°28' E 025°20'0 0.0
2018-Feb-14 01:30N 37°28' E 025°20'0 0.0
2018-Feb-14 01:01N 37°28' E 025°20'0 0.0
2018-Feb-14 00:30N 37°28' E 025°20'0 0.0
2018-Feb-14 00:00N 37°28' E 025°20'0 0.0
2018-Feb-13 23:30N 37°28' E 025°20'0 0.0
2018-Feb-13 23:00N 37°28' E 025°20'0 0.0
2018-Feb-13 22:30N 37°28' E 025°20'0 0.0
2018-Feb-13 22:00N 37°28' E 025°20'0 0.0
2018-Feb-13 21:30N 37°28' E 025°20'0 0.0
2018-Feb-13 21:00N 37°28' E 025°20'3 6.9
2018-Feb-13 20:31N 37°29' E 025°16'611.1
2018-Feb-13 20:00N 37°32' E 025°10'3 6.3
2018-Feb-13 19:30N 37°33' E 025°06'5014.8
2018-Feb-13 16:07N 37°59' E 024°11'218.1
2018-Feb-13 15:59N 37°60' E 024°08'6 1.1
2018-Feb-13 10:13N 38°01' E 024°01'416.6
2018-Feb-13 10:00N 38°00' E 024°05'5915.1
2018-Feb-13 06:06N 37°31' E 025°10'8 3.6
2018-Feb-13 03:48N 37°28' E 025°20'0 0.0
2018-Feb-13 03:31N 37°28' E 025°20'0 0.0
2018-Feb-13 03:00N 37°28' E 025°20'0 0.0
2018-Feb-13 02:31N 37°28' E 025°20'0 0.0
2018-Feb-13 02:00N 37°28' E 025°20'0 0.0
2018-Feb-13 01:31N 37°28' E 025°20'0 0.0
2018-Feb-13 01:01N 37°28' E 025°20'0 0.0
2018-Feb-13 00:30N 37°28' E 025°20'0 0.0
2018-Feb-13 00:01N 37°28' E 025°20'0 0.0
2018-Feb-12 23:30N 37°28' E 025°20'0 0.0
2018-Feb-12 23:01N 37°28' E 025°20'0 0.0
2018-Feb-12 22:30N 37°28' E 025°20'0 0.0
2018-Feb-12 22:01N 37°28' E 025°20'0 0.0
2018-Feb-12 21:31N 37°28' E 025°20'0 0.0
2018-Feb-12 21:01N 37°28' E 025°20'0 0.0
2018-Feb-12 20:31N 37°28' E 025°20'612.8
2018-Feb-12 20:00N 37°30' E 025°12'3 5.8
2018-Feb-12 19:30N 37°32' E 025°09'815.4
2018-Feb-12 19:00N 37°36' E 025°01'4615.6
2018-Feb-12 16:04N 37°59' E 024°11'218.3
2018-Feb-12 15:59N 37°59' E 024°09'6 1.1
2018-Feb-12 10:13N 38°01' E 024°01'418.0
2018-Feb-12 10:00N 38°00' E 024°06'4815.8
2018-Feb-12 06:56N 37°37' E 025°00'819.0
2018-Feb-12 06:30N 37°32' E 025°08'4 8.5
2018-Feb-12 06:01N 37°30' E 025°13'611.9
2018-Feb-12 05:30N 37°28' E 025°20'0 0.0
2018-Feb-12 05:01N 37°28' E 025°20'0 0.0
2018-Feb-12 04:31N 37°28' E 025°20'0 0.0
2018-Feb-12 04:00N 37°28' E 025°20'0 0.0
2018-Feb-12 03:30N 37°28' E 025°20'0 0.0
2018-Feb-12 03:01N 37°28' E 025°20'0 0.0
2018-Feb-12 02:31N 37°28' E 025°20'0 0.0
2018-Feb-12 02:01N 37°28' E 025°20'0 0.0
2018-Feb-12 01:30N 37°28' E 025°20'0 0.0
2018-Feb-12 01:01N 37°28' E 025°20'0 0.0
2018-Feb-12 00:31N 37°28' E 025°20'0 0.0
2018-Feb-12 00:01N 37°28' E 025°20'0 0.0
2018-Feb-11 23:30N 37°28' E 025°20'0 0.0
2018-Feb-11 23:01N 37°28' E 025°20'0 0.0
2018-Feb-11 22:31N 37°28' E 025°20'0 0.0
2018-Feb-11 22:01N 37°28' E 025°20'0 0.0
2018-Feb-11 21:31N 37°28' E 025°20'3 6.8
2018-Feb-11 21:00N 37°29' E 025°16'611.8
2018-Feb-11 20:30N 37°32' E 025°09'612.7
2018-Feb-11 20:00N 37°35' E 025°02'4715.7
2018-Feb-11 17:01N 37°59' E 024°11'119.1
2018-Feb-11 16:57N 37°59' E 024°09'  
Track history (hours):
 
Tides and Currents Weather Stations Pressure Air Temp Water Temp Dewpoint Dewpoint Depression Visibility Wind Speed Wind Dir Waves Ship Positions

Fast Ferries Andros

Last reported at 2018-Feb-21 15:59 UTC. Time now 2018-Feb-21 17:36 UTC.
Position N 37°59' E 024°09'.

Length 115 m; draft 4.5 m.

Type: Passenger vessel. MMSI: 237955000.

Date/timePositionNaut miles runAvg speedWind from/ knotsBaromVisibWave heightAir tempDewpointWater temp
2018-Feb-21 15:59N 37°59' E 024°09'6 1.1
2018-Feb-21 10:12N 38°01' E 024°01'418.0
2018-Feb-21 10:00N 38°00' E 024°06'4815.8
2018-Feb-21 06:58N 37°38' E 024°59'919.1
2018-Feb-21 06:30N 37°32' E 025°08'4 7.4
2018-Feb-21 06:00N 37°31' E 025°12'713.3
2018-Feb-21 05:30N 37°28' E 025°20'0 0.0
2018-Feb-21 05:00N 37°28' E 025°20'0 0.0
2018-Feb-21 04:30N 37°28' E 025°20'0 0.0
2018-Feb-21 04:00N 37°28' E 025°20'0 0.0
2018-Feb-21 03:30N 37°28' E 025°20'0 0.0
2018-Feb-21 03:00N 37°28' E 025°20'0 0.0
2018-Feb-21 02:30N 37°28' E 025°20'0 0.0
2018-Feb-21 02:00N 37°28' E 025°20'0 0.0
2018-Feb-21 01:30N 37°28' E 025°20'0 0.0
2018-Feb-21 01:00N 37°28' E 025°20'0 0.0
2018-Feb-21 00:30N 37°28' E 025°20'0 0.0
2018-Feb-20 23:59N 37°28' E 025°20'0 0.0
2018-Feb-20 23:30N 37°28' E 025°20'0 0.0
2018-Feb-20 23:00N 37°28' E 025°20'0 0.0
2018-Feb-20 22:30N 37°28' E 025°20'0 0.0
2018-Feb-20 22:00N 37°28' E 025°20'0 0.0
2018-Feb-20 21:30N 37°28' E 025°20'0 0.0
2018-Feb-20 21:00N 37°28' E 025°20'0 0.0
2018-Feb-20 20:30N 37°28' E 025°20'612.5
2018-Feb-20 20:01N 37°30' E 025°12'3 6.5
2018-Feb-20 19:31N 37°32' E 025°09'917.8
2018-Feb-20 19:00N 37°37' E 024°60'4615.4
2018-Feb-20 16:00N 37°60' E 024°08'6 1.0
2018-Feb-20 10:18N 38°01' E 024°01'4915.4
2018-Feb-20 07:07N 37°39' E 024°57'219.3
2018-Feb-20 06:59N 37°38' E 024°59'918.6
2018-Feb-20 06:30N 37°32' E 025°08'3 6.8
2018-Feb-20 06:00N 37°30' E 025°12'713.0
2018-Feb-20 05:30N 37°28' E 025°20'0 0.0
2018-Feb-20 05:00N 37°28' E 025°20'0 0.0
2018-Feb-20 04:30N 37°28' E 025°20'0 0.0
2018-Feb-20 04:00N 37°28' E 025°20'0 0.0
2018-Feb-20 03:30N 37°28' E 025°20'0 0.0
2018-Feb-20 02:59N 37°28' E 025°20'0 0.0
2018-Feb-20 02:30N 37°28' E 025°20'0 0.0
2018-Feb-20 02:00N 37°28' E 025°20'0 0.0
2018-Feb-20 01:30N 37°28' E 025°20'0 0.0
2018-Feb-20 01:00N 37°28' E 025°20'713.8
2018-Feb-20 00:30N 37°31' E 025°12'4 8.5
2018-Feb-20 00:00N 37°33' E 025°07'1118.7
2018-Feb-19 23:26N 37°38' E 024°55'3418.6
2018-Feb-19 21:35N 37°54' E 024°17'219.1
2018-Feb-19 21:29N 37°56' E 024°15'919.0
2018-Feb-19 21:00N 37°60' E 024°05'3 3.1
2018-Feb-19 20:01N 38°01' E 024°01'013.1
2018-Feb-19 20:00N 38°01' E 024°02'8 1.9
2018-Feb-19 16:01N 37°59' E 024°11'018.5
2018-Feb-19 16:00N 37°59' E 024°11'8 6.0
2018-Feb-19 14:42N 38°01' E 024°01'417.6
2018-Feb-19 14:30N 38°00' E 024°06'4915.6
2018-Feb-19 11:20N 37°37' E 025°00'619.3
2018-Feb-19 11:00N 37°33' E 025°06'3 7.0
2018-Feb-19 10:30N 37°31' E 025°10'816.2
2018-Feb-19 10:00N 37°28' E 025°20'0 0.0
2018-Feb-19 09:30N 37°28' E 025°20'0 0.0
2018-Feb-19 09:00N 37°28' E 025°20'0 0.0
2018-Feb-19 08:30N 37°28' E 025°20'0 0.0
2018-Feb-19 08:00N 37°28' E 025°20'0 0.0
2018-Feb-19 07:30N 37°28' E 025°20'0 0.0
2018-Feb-19 07:00N 37°28' E 025°20'0 0.0
2018-Feb-19 06:30N 37°28' E 025°20'0 0.0
2018-Feb-19 06:00N 37°28' E 025°20'0 0.0
2018-Feb-19 05:30N 37°28' E 025°20'0 0.0
2018-Feb-19 05:00N 37°28' E 025°20'0 0.0
2018-Feb-19 04:30N 37°28' E 025°20'0 0.0
2018-Feb-19 04:00N 37°28' E 025°20'0 0.0
2018-Feb-19 03:30N 37°28' E 025°20'0 0.0
2018-Feb-19 03:00N 37°28' E 025°20'0 0.0
2018-Feb-19 02:30N 37°28' E 025°20'0 0.0
2018-Feb-19 02:00N 37°28' E 025°20'0 0.0
2018-Feb-19 01:30N 37°28' E 025°20'0 0.0
2018-Feb-19 01:00N 37°28' E 025°20'0 0.0
2018-Feb-19 00:30N 37°28' E 025°20'0 0.0
2018-Feb-19 00:00N 37°28' E 025°20'0 0.0
2018-Feb-18 23:30N 37°28' E 025°20'0 0.0
2018-Feb-18 23:00N 37°28' E 025°20'0 0.0
2018-Feb-18 22:30N 37°28' E 025°20'0 0.0
2018-Feb-18 22:00N 37°28' E 025°20'0 0.0
2018-Feb-18 21:30N 37°28' E 025°20'0 0.0
2018-Feb-18 21:00N 37°28' E 025°20'1 1.8
2018-Feb-18 20:30N 37°28' E 025°18'816.8
2018-Feb-18 20:00N 37°32' E 025°09'510.3
2018-Feb-18 19:30N 37°35' E 025°04'4916.1
2018-Feb-18 16:27N 37°59' E 024°10'7 7.3
2018-Feb-18 15:28N 38°01' E 024°01'5115.6
2018-Feb-18 12:11N 37°38' E 024°59'319.1
2018-Feb-18 12:00N 37°36' E 025°02'714.2
2018-Feb-18 11:30N 37°32' E 025°09'612.8
2018-Feb-18 11:00N 37°29' E 025°16'3 5.8
2018-Feb-18 10:30N 37°28' E 025°20'0 0.0
2018-Feb-18 10:00N 37°28' E 025°20'0 0.0
2018-Feb-18 09:30N 37°28' E 025°20'0 0.0
2018-Feb-18 09:00N 37°28' E 025°20'0 0.0
2018-Feb-18 06:38N 37°28' E 025°20'0 0.0
2018-Feb-18 06:30N 37°28' E 025°20'0 0.0
2018-Feb-18 06:00N 37°28' E 025°20'0 0.0
2018-Feb-18 05:30N 37°28' E 025°20'0 0.0
2018-Feb-18 05:00N 37°28' E 025°20'0 0.0
2018-Feb-18 04:30N 37°28' E 025°20'0 0.0
2018-Feb-18 04:00N 37°28' E 025°20'0 0.0
2018-Feb-18 03:30N 37°28' E 025°20'0 0.0
2018-Feb-18 03:00N 37°28' E 025°20'0 0.0
2018-Feb-18 02:30N 37°28' E 025°20'0 0.0
2018-Feb-18 02:00N 37°28' E 025°20'0 0.0
2018-Feb-18 01:30N 37°28' E 025°20'0 0.0
2018-Feb-18 01:00N 37°28' E 025°20'0 0.0
2018-Feb-18 00:30N 37°28' E 025°20'0 0.0
2018-Feb-18 00:00N 37°28' E 025°20'0 0.0
2018-Feb-17 23:30N 37°28' E 025°20'0 0.0
2018-Feb-17 23:00N 37°28' E 025°20'0 0.0
2018-Feb-17 22:30N 37°28' E 025°20'0 0.0
2018-Feb-17 22:00N 37°28' E 025°20'0 0.0
2018-Feb-17 21:30N 37°28' E 025°20'0 0.0
2018-Feb-17 21:00N 37°28' E 025°20'0 0.0
2018-Feb-17 20:30N 37°28' E 025°20'5 9.5
2018-Feb-17 20:00N 37°30' E 025°14'5 9.0
2018-Feb-17 19:30N 37°32' E 025°09'816.2
2018-Feb-17 19:00N 37°37' E 025°01'918.8
2018-Feb-17 18:30N 37°43' E 024°53'3915.0
2018-Feb-17 15:56N 37°59' E 024°08'6 4.3
2018-Feb-17 14:37N 38°01' E 024°01'217.0
2018-Feb-17 14:30N 38°01' E 024°04'4018.4
2018-Feb-17 12:20N 37°41' E 024°48'718.5
2018-Feb-17 11:59N 37°38' E 024°55'918.3
2018-Feb-17 11:30N 37°34' E 025°04'918.0
2018-Feb-17 11:00N 37°29' E 025°14'4 8.5
2018-Feb-17 10:29N 37°28' E 025°20'3 7.3
2018-Feb-17 10:01N 37°29' E 025°16'611.5
2018-Feb-17 09:30N 37°32' E 025°09'714.7
2018-Feb-17 09:00N 37°36' E 025°02'1018.7
2018-Feb-17 08:28N 37°43' E 024°52'3714.7
2018-Feb-17 05:57N 37°59' E 024°10'8 1.8
2018-Feb-17 01:46N 38°01' E 024°01'414.9
2018-Feb-17 01:30N 38°01' E 024°06'3818.2
2018-Feb-16 23:23N 37°41' E 024°48'818.3
2018-Feb-16 22:57N 37°37' E 024°56'818.3
2018-Feb-16 22:30N 37°33' E 025°05'918.1
2018-Feb-16 22:00N 37°29' E 025°15'3 6.9
2018-Feb-16 21:30N 37°28' E 025°20'0 0.3
2018-Feb-16 21:00N 37°28' E 025°19'917.2
2018-Feb-16 20:30N 37°31' E 025°10'1 1.5
2018-Feb-16 20:00N 37°32' E 025°09'714.1
2018-Feb-16 19:30N 37°36' E 025°02'1018.0
2018-Feb-16 18:58N 37°43' E 024°53'3813.6
2018-Feb-16 16:09N 37°59' E 024°09'318.2
2018-Feb-16 16:00N 38°00' E 024°06'4 0.7
2018-Feb-16 10:19N 38°01' E 024°01'5115.6
2018-Feb-16 07:01N 37°38' E 024°59'019.3
2018-Feb-16 07:00N 37°38' E 024°59'1019.2
2018-Feb-16 06:31N 37°32' E 025°08'4 7.3
2018-Feb-16 06:00N 37°30' E 025°12'612.7
2018-Feb-16 05:30N 37°28' E 025°20'0 0.0
2018-Feb-16 05:00N 37°28' E 025°20'0 0.0
2018-Feb-16 04:30N 37°28' E 025°20'0 0.0
2018-Feb-16 04:01N 37°28' E 025°20'0 0.0
2018-Feb-16 03:30N 37°28' E 025°20'0 0.0
2018-Feb-16 03:00N 37°28' E 025°20'0 0.0
2018-Feb-16 02:31N 37°28' E 025°20'0 0.0
2018-Feb-16 02:00N 37°28' E 025°20'0 0.0
2018-Feb-16 01:30N 37°28' E 025°20'0 0.0
2018-Feb-16 01:01N 37°28' E 025°20'0 0.0
2018-Feb-16 00:30N 37°28' E 025°20'0 0.0
2018-Feb-16 00:00N 37°28' E 025°20'0 0.0
2018-Feb-15 23:30N 37°28' E 025°20'0 0.0
2018-Feb-15 23:00N 37°28' E 025°20'0 0.0
2018-Feb-15 22:30N 37°28' E 025°20'0 0.0
2018-Feb-15 22:00N 37°28' E 025°20'0 0.0
2018-Feb-15 21:30N 37°28' E 025°20'0 0.0
2018-Feb-15 21:00N 37°28' E 025°20'0 0.2
2018-Feb-15 20:30N 37°28' E 025°20'815.4
2018-Feb-15 20:00N 37°31' E 025°11'2 4.1
2018-Feb-15 19:30N 37°32' E 025°09'5515.6
2018-Feb-15 15:59N 37°60' E 024°08'6 1.1
2018-Feb-15 10:22N 38°01' E 024°01'514.8
2018-Feb-15 10:00N 37°60' E 024°07'4615.5
2018-Feb-15 07:04N 37°38' E 024°59'119.1
2018-Feb-15 06:59N 37°37' E 024°60'918.6
2018-Feb-15 06:30N 37°32' E 025°09'4 8.0
2018-Feb-15 06:00N 37°30' E 025°13'511.0
2018-Feb-15 05:30N 37°28' E 025°20'0 0.0
2018-Feb-15 05:00N 37°28' E 025°20'0 0.0
2018-Feb-15 04:30N 37°28' E 025°20'0 0.0
2018-Feb-15 04:00N 37°28' E 025°20'0 0.0
2018-Feb-15 03:30N 37°28' E 025°20'0 0.0
2018-Feb-15 03:00N 37°28' E 025°20'0 0.0
2018-Feb-15 02:30N 37°28' E 025°20'0 0.0
2018-Feb-15 02:00N 37°28' E 025°20'0 0.0
2018-Feb-15 01:30N 37°28' E 025°20'0 0.0
2018-Feb-15 01:00N 37°28' E 025°20'0 0.0
2018-Feb-15 00:30N 37°28' E 025°20'0 0.0
2018-Feb-15 00:00N 37°28' E 025°20'0 0.0
2018-Feb-14 23:30N 37°28' E 025°20'0 0.0
2018-Feb-14 23:00N 37°28' E 025°20'0 0.0
2018-Feb-14 22:30N 37°28' E 025°20'0 0.0
2018-Feb-14 22:00N 37°28' E 025°20'0 0.0
2018-Feb-14 21:30N 37°28' E 025°20'0 0.0
2018-Feb-14 21:00N 37°28' E 025°20'0 0.1
2018-Feb-14 20:30N 37°28' E 025°20'815.2
2018-Feb-14 20:00N 37°31' E 025°11'2 3.4
2018-Feb-14 19:30N 37°32' E 025°09'816.9
2018-Feb-14 19:00N 37°37' E 025°01'53 6.4
2018-Feb-14 10:45N 38°01' E 024°01'517.1
2018-Feb-14 10:29N 38°00' E 024°07'4614.9
2018-Feb-14 07:22N 37°38' E 024°58'718.3
2018-Feb-14 07:00N 37°34' E 025°05'4 7.7
2018-Feb-14 06:28N 37°32' E 025°10'4 9.3
2018-Feb-14 06:00N 37°30' E 025°14'5 9.8
2018-Feb-14 05:31N 37°28' E 025°20'0 0.0
2018-Feb-14 05:00N 37°28' E 025°20'0 0.0
2018-Feb-14 04:29N 37°28' E 025°20'0 0.0
2018-Feb-14 04:00N 37°28' E 025°20'0 0.0
2018-Feb-14 03:30N 37°28' E 025°20'0 0.0
2018-Feb-14 03:00N 37°28' E 025°20'0 0.0
2018-Feb-14 02:30N 37°28' E 025°20'0 0.0
2018-Feb-14 02:01N 37°28' E 025°20'0 0.0
2018-Feb-14 01:30N 37°28' E 025°20'0 0.0
2018-Feb-14 01:01N 37°28' E 025°20'0 0.0
2018-Feb-14 00:30N 37°28' E 025°20'0 0.0
2018-Feb-14 00:00N 37°28' E 025°20'0 0.0
2018-Feb-13 23:30N 37°28' E 025°20'0 0.0
2018-Feb-13 23:00N 37°28' E 025°20'0 0.0
2018-Feb-13 22:30N 37°28' E 025°20'0 0.0
2018-Feb-13 22:00N 37°28' E 025°20'0 0.0
2018-Feb-13 21:30N 37°28' E 025°20'0 0.0
2018-Feb-13 21:00N 37°28' E 025°20'3 6.9
2018-Feb-13 20:31N 37°29' E 025°16'611.1
2018-Feb-13 20:00N 37°32' E 025°10'3 6.3
2018-Feb-13 19:30N 37°33' E 025°06'5014.8
2018-Feb-13 16:07N 37°59' E 024°11'218.1
2018-Feb-13 15:59N 37°60' E 024°08'6 1.1
2018-Feb-13 10:13N 38°01' E 024°01'416.6
2018-Feb-13 10:00N 38°00' E 024°05'5915.1
2018-Feb-13 06:06N 37°31' E 025°10'8 3.6
2018-Feb-13 03:48N 37°28' E 025°20'0 0.0
2018-Feb-13 03:31N 37°28' E 025°20'0 0.0
2018-Feb-13 03:00N 37°28' E 025°20'0 0.0
2018-Feb-13 02:31N 37°28' E 025°20'0 0.0
2018-Feb-13 02:00N 37°28' E 025°20'0 0.0
2018-Feb-13 01:31N 37°28' E 025°20'0 0.0
2018-Feb-13 01:01N 37°28' E 025°20'0 0.0
2018-Feb-13 00:30N 37°28' E 025°20'0 0.0
2018-Feb-13 00:01N 37°28' E 025°20'0 0.0
2018-Feb-12 23:30N 37°28' E 025°20'0 0.0
2018-Feb-12 23:01N 37°28' E 025°20'0 0.0
2018-Feb-12 22:30N 37°28' E 025°20'0 0.0
2018-Feb-12 22:01N 37°28' E 025°20'0 0.0
2018-Feb-12 21:31N 37°28' E 025°20'0 0.0
2018-Feb-12 21:01N 37°28' E 025°20'0 0.0
2018-Feb-12 20:31N 37°28' E 025°20'612.8
2018-Feb-12 20:00N 37°30' E 025°12'3 5.8
2018-Feb-12 19:30N 37°32' E 025°09'815.4
2018-Feb-12 19:00N 37°36' E 025°01'4615.6
2018-Feb-12 16:04N 37°59' E 024°11'218.3
2018-Feb-12 15:59N 37°59' E 024°09'6 1.1
2018-Feb-12 10:13N 38°01' E 024°01'418.0
2018-Feb-12 10:00N 38°00' E 024°06'4815.8
2018-Feb-12 06:56N 37°37' E 025°00'819.0
2018-Feb-12 06:30N 37°32' E 025°08'4 8.5
2018-Feb-12 06:01N 37°30' E 025°13'611.9
2018-Feb-12 05:30N 37°28' E 025°20'0 0.0
2018-Feb-12 05:01N 37°28' E 025°20'0 0.0
2018-Feb-12 04:31N 37°28' E 025°20'0 0.0
2018-Feb-12 04:00N 37°28' E 025°20'0 0.0
2018-Feb-12 03:30N 37°28' E 025°20'0 0.0
2018-Feb-12 03:01N 37°28' E 025°20'0 0.0
2018-Feb-12 02:31N 37°28' E 025°20'0 0.0
2018-Feb-12 02:01N 37°28' E 025°20'0 0.0
2018-Feb-12 01:30N 37°28' E 025°20'0 0.0
2018-Feb-12 01:01N 37°28' E 025°20'0 0.0
2018-Feb-12 00:31N 37°28' E 025°20'0 0.0
2018-Feb-12 00:01N 37°28' E 025°20'0 0.0
2018-Feb-11 23:30N 37°28' E 025°20'0 0.0
2018-Feb-11 23:01N 37°28' E 025°20'0 0.0
2018-Feb-11 22:31N 37°28' E 025°20'0 0.0
2018-Feb-11 22:01N 37°28' E 025°20'0 0.0
2018-Feb-11 21:31N 37°28' E 025°20'3 6.8
2018-Feb-11 21:00N 37°29' E 025°16'611.8
2018-Feb-11 20:30N 37°32' E 025°09'612.7
2018-Feb-11 20:00N 37°35' E 025°02'4715.7
2018-Feb-11 17:01N 37°59' E 024°11'119.1
2018-Feb-11 16:57N 37°59' E 024°09'  

Dump ship's entire track history